Terminal Aerodrome Forecast
Issued by NWS

Home | Current Version | Previous Version | Text Only | Print | Product List | Glossary On
Versions: 1 2 3 4 5 6 7 8 9 10 11 12 13 14 15 16 17 18 19 20 21 22 23 24 25 26 27 28 29 30 31 32 33 34 35 36 37 38 39 40 41 42 43 44 45 46 47 48 49 50
000
FTUS45 KBOU 222326
TAFBJC
TAF
KBJC 222326Z 2300/2324 03008KT P6SM VCSH BKN015 BKN035
      TEMPO 2300/2301 4SM -TSRA BKN015CB
     FM230100 03010KT P6SM VCTS SCT025CB OVC050
     FM230700 11005KT 3SM BR BKN012 OVC025
     FM231000 VRB04KT 1SM BR BKN008 OVC014
      TEMPO 2310/2314 1/2SM FG VV003
     FM231500 36006KT P6SM BKN012 OVC020
     FM231700 34010KT P6SM SCT015 SCT035
     FM231900 32008KT P6SM SCT025 BKN045
      TEMPO 2320/2324 VRB25G35KT 4SM -TSRA BKN016CB OVC030=

USA.gov is the U.S. government's official web portal to all federal, state and local government web resources and services.